createdAt,value
2022-08-27T00:02:10.219Z,95846.19
2022-08-27T00:07:14.009Z,95849.19
2022-08-27T00:12:18.145Z,95840.47
2022-08-27T00:17:20.912Z,95845.13
2022-08-27T00:22:23.665Z,95844.28
2022-08-27T00:27:27.847Z,95849.56
2022-08-27T00:32:30.624Z,95853.16
2022-08-27T00:37:33.772Z,95841.69
2022-08-27T00:42:38.396Z,95835.69
2022-08-27T00:47:45.580Z,95834.94
2022-08-27T00:52:53.697Z,95842.63
2022-08-27T00:58:03.888Z,95844.56
2022-08-27T01:03:09.123Z,95837.19
2022-08-27T01:08:15.562Z,95842.06
2022-08-27T01:13:59.288Z,95840.56
2022-08-27T01:18:45.936Z,95839.84
2022-08-27T01:23:55.621Z,95834.34
2022-08-27T01:28:59.978Z,95836.41
2022-08-27T01:34:07.029Z,95832.28
2022-08-27T01:39:09.873Z,95828.88
2022-08-27T01:44:20.784Z,95824.44
2022-08-27T01:49:23.748Z,95824.44
2022-08-27T01:54:26.501Z,95818.69
2022-08-27T01:59:39.326Z,95822.38
2022-08-27T02:04:43.115Z,95809.78
2022-08-27T02:09:45.928Z,95820.88
2022-08-27T02:14:50.137Z,95802.81
2022-08-27T02:19:53.341Z,95802.31
2022-08-27T02:24:56.205Z,95797.19
2022-08-27T02:30:00.452Z,95789.97
2022-08-27T02:35:04.562Z,95805.72
2022-08-27T02:40:09.616Z,95802.31
2022-08-27T02:45:15.772Z,95799.13
2022-08-27T02:50:18.746Z,95795.09
2022-08-27T02:55:22.337Z,95790.63
2022-08-27T03:00:28.739Z,95783.34
2022-08-27T03:05:31.777Z,95788.88
2022-08-27T03:10:34.990Z,95788.06
2022-08-27T03:15:39.247Z,95789.13
2022-08-27T03:20:44.453Z,95780.22
2022-08-27T03:25:51.373Z,95784.09
2022-08-27T03:31:00.426Z,95776.97
2022-08-27T03:36:03.505Z,95778.41
2022-08-27T03:41:06.941Z,95775.75
2022-08-27T03:46:11.620Z,95776.19
2022-08-27T03:51:15.412Z,95771.66
2022-08-27T03:56:18.200Z,95765.97
2022-08-27T04:01:22.454Z,95761.31
2022-08-27T04:06:25.253Z,95765.16
2022-08-27T04:11:29.338Z,95769.63
2022-08-27T04:16:34.022Z,95768.97
2022-08-27T04:21:37.303Z,95780.09
2022-08-27T04:26:41.053Z,95766.72
2022-08-27T04:31:45.357Z,95760.63
2022-08-27T04:36:48.405Z,95767.31
2022-08-27T04:41:51.553Z,95767.03
2022-08-27T04:46:58.505Z,95774.31
2022-08-27T04:52:01.290Z,95779.34
2022-08-27T04:57:06.494Z,95778.94
2022-08-27T05:02:11.015Z,95778.13
2022-08-27T05:07:13.779Z,95778.50
2022-08-27T05:12:16.525Z,95779.75
2022-08-27T05:17:21.869Z,95780.81
2022-08-27T05:22:24.655Z,95779.97
2022-08-27T05:27:27.489Z,95785.88
2022-08-27T05:32:32.246Z,95787.34
2022-08-27T05:37:35.027Z,95788.81
2022-08-27T05:42:37.914Z,95789.03
2022-08-27T05:47:44.851Z,95797.38
2022-08-27T05:52:47.828Z,95790.31
2022-08-27T05:57:51.326Z,95795.63
2022-08-27T06:02:55.498Z,95787.97
2022-08-27T06:07:58.377Z,95794.06
2022-08-27T06:13:01.132Z,95790.56
2022-08-27T06:18:05.507Z,95784.63
2022-08-27T06:23:08.429Z,95784.72
2022-08-27T06:28:12.193Z,95779.97
2022-08-27T06:33:16.871Z,95784.03
2022-08-27T06:38:19.457Z,95793.75
2022-08-27T06:43:25.107Z,95793.09
2022-08-27T06:48:29.462Z,95783.13
2022-08-27T06:53:36.336Z,95788.38
2022-08-27T06:58:39.181Z,95785.84
2022-08-27T07:03:43.965Z,95779.28
2022-08-27T07:08:53.210Z,95769.47
2022-08-27T07:13:57.206Z,95775.09
2022-08-27T07:19:04.275Z,95778.66
2022-08-27T07:24:09.070Z,95777.53
2022-08-27T07:29:14.368Z,95772.56
2022-08-27T07:34:18.559Z,95791.22
2022-08-27T07:39:24.199Z,95790.28
2022-08-27T07:44:28.111Z,95790.50
2022-08-27T07:49:37.660Z,95782.69
2022-08-27T07:54:41.406Z,95791.50
2022-08-27T07:59:44.289Z,95795.25
2022-08-27T08:04:48.455Z,95795.78
2022-08-27T08:09:51.068Z,95802.03
2022-08-27T08:14:57.731Z,95803.53
2022-08-27T08:20:19.834Z,95794.97
2022-08-27T08:25:25.034Z,95805.97
2022-08-27T08:30:29.467Z,95797.63
2022-08-27T08:35:41.285Z,95816.56
2022-08-27T08:40:46.822Z,95809.84
2022-08-27T08:45:51.141Z,95804.91
2022-08-27T08:51:02.931Z,95803.47
2022-08-27T08:56:10.659Z,95803.69
2022-08-27T09:01:16.166Z,95796.72
2022-08-27T09:06:28.134Z,95793.84
2022-08-27T09:11:42.312Z,95797.09
2022-08-27T09:16:45.146Z,95792.56
2022-08-27T09:21:53.614Z,95791.44
2022-08-27T09:26:56.497Z,95785.88
2022-08-27T09:32:01.837Z,95795.47
2022-08-27T09:37:11.293Z,95790.06
2022-08-27T09:42:26.623Z,95792.22
2022-08-27T09:47:29.531Z,95787.88
2022-08-27T09:52:37.887Z,95776.75
2022-08-27T09:57:43.041Z,95782.56
2022-08-27T10:02:53.829Z,95779.31
2022-08-27T10:08:02.332Z,95778.69
2022-08-27T10:13:10.789Z,95777.72
2022-08-27T10:18:22.894Z,95772.06
2022-08-27T10:23:36.437Z,95775.47
2022-08-27T10:28:55.124Z,95781.31
2022-08-27T10:34:12.531Z,95766.44
2022-08-27T10:39:25.142Z,95778.69
2022-08-27T10:44:43.296Z,95778.81
2022-08-27T10:49:53.775Z,95766.78
2022-08-27T10:55:02.066Z,95758.44
2022-08-27T11:00:14.128Z,95758.00
2022-08-27T11:05:22.038Z,95749.09
2022-08-27T11:10:30.854Z,95744.44
2022-08-27T11:15:37.561Z,95738.47
2022-08-27T11:20:46.639Z,95734.78
2022-08-27T11:25:55.642Z,95732.53
2022-08-27T11:31:09.201Z,95727.88
2022-08-27T11:36:54.213Z,95712.50
2022-08-27T11:42:08.508Z,95723.06
2022-08-27T11:47:14.792Z,95716.31
2022-08-27T11:52:29.400Z,95713.19
2022-08-27T11:57:36.805Z,95703.69
2022-08-27T12:02:39.942Z,95707.97
2022-08-27T12:07:45.690Z,95710.97
2022-08-27T12:13:02.574Z,95694.13
2022-08-27T12:18:25.186Z,95701.09
2022-08-27T12:23:44.614Z,95699.56
2022-08-27T12:28:48.775Z,95695.31
2022-08-27T12:33:54.957Z,95687.28
2022-08-27T12:38:59.575Z,95696.94
2022-08-27T12:44:10.574Z,95685.91
2022-08-27T12:49:36.987Z,95677.50
2022-08-27T12:54:46.826Z,95695.75
2022-08-27T13:00:08.491Z,95679.16
2022-08-27T13:05:13.424Z,95677.59
2022-08-27T13:10:18.860Z,95678.41
2022-08-27T13:15:23.256Z,95680.19
2022-08-27T13:20:27.629Z,95678.72
2022-08-27T13:25:34.339Z,95687.56
2022-08-27T13:30:42.013Z,95683.91
2022-08-27T13:35:46.200Z,95675.41
2022-08-27T13:40:56.468Z,95676.75
2022-08-27T13:46:02.489Z,95687.00
2022-08-27T13:51:06.968Z,95689.03
2022-08-27T13:56:10.325Z,95687.84
2022-08-27T14:01:17.153Z,95691.94
2022-08-27T14:06:31.998Z,95678.03
2022-08-27T14:11:39.610Z,95664.88
2022-08-27T14:16:43.848Z,95669.38
2022-08-27T14:21:46.640Z,95673.00
2022-08-27T14:26:51.050Z,95670.28
2022-08-27T14:31:55.381Z,95658.94
2022-08-27T14:36:58.184Z,95648.84
2022-08-27T14:42:01.170Z,95662.31
2022-08-27T14:47:09.559Z,95661.50
2022-08-27T14:52:14.362Z,95682.38
2022-08-27T14:57:17.236Z,95681.28
2022-08-27T15:02:23.231Z,95682.28
2022-08-27T15:07:25.990Z,95681.66
2022-08-27T15:12:32.319Z,95693.06
2022-08-27T15:17:37.106Z,95683.97
2022-08-27T15:22:44.145Z,95675.34
2022-08-27T15:27:47.152Z,95685.56
2022-08-27T15:32:51.625Z,95677.66
2022-08-27T15:37:55.284Z,95677.91
2022-08-27T15:43:02.063Z,95687.03
2022-08-27T15:48:06.805Z,95692.91
2022-08-27T15:53:10.794Z,95686.50
2022-08-27T15:58:13.878Z,95687.69
2022-08-27T16:03:18.087Z,95691.56
2022-08-27T16:08:20.863Z,95691.75
2022-08-27T16:13:24.901Z,95688.69
2022-08-27T16:18:31.209Z,95688.28
2022-08-27T16:23:36.243Z,95681.13
2022-08-27T16:28:39.078Z,95673.31
2022-08-27T16:33:44.208Z,95685.84
2022-08-27T16:38:47.042Z,95692.28
2022-08-27T16:43:49.970Z,95700.94
2022-08-27T16:49:11.738Z,95691.53
2022-08-27T16:54:16.615Z,95684.56
2022-08-27T16:59:19.365Z,95690.47
2022-08-27T17:04:29.582Z,95687.22
2022-08-27T17:09:40.849Z,95695.81
2022-08-27T17:14:46.352Z,95687.50
2022-08-27T17:19:50.494Z,95685.00
2022-08-27T17:24:54.923Z,95689.47
2022-08-27T17:29:59.697Z,95689.28
2022-08-27T17:35:06.244Z,95684.50
2022-08-27T17:40:14.821Z,95701.50
2022-08-27T17:45:18.632Z,95692.13
2022-08-27T17:50:25.257Z,95698.19
2022-08-27T17:55:30.720Z,95692.59
2022-08-27T18:00:36.599Z,95692.16
2022-08-27T18:05:40.769Z,95695.28
2022-08-27T18:10:47.750Z,95699.72
2022-08-27T18:15:52.113Z,95709.47
2022-08-27T18:20:56.258Z,95707.09
2022-08-27T18:25:59.583Z,95708.59
2022-08-27T18:31:06.546Z,95711.88
2022-08-27T18:36:11.405Z,95713.06
2022-08-27T18:41:14.910Z,95714.16
2022-08-27T18:46:18.568Z,95721.16
2022-08-27T18:51:23.358Z,95718.84
2022-08-27T18:56:26.536Z,95724.38
2022-08-27T19:01:30.865Z,95732.53
2022-08-27T19:06:35.161Z,95731.91
2022-08-27T19:11:38.061Z,95732.69
2022-08-27T19:16:44.368Z,95728.34
2022-08-27T19:21:51.518Z,95730.88
2022-08-27T19:26:54.981Z,95733.88
2022-08-27T19:31:57.841Z,95740.97
2022-08-27T19:37:02.873Z,95729.19
2022-08-27T19:42:06.616Z,95727.09
2022-08-27T19:47:11.219Z,95737.03
2022-08-27T19:52:15.424Z,95729.41
2022-08-27T19:57:18.389Z,95725.44
2022-08-27T20:02:21.152Z,95728.31
2022-08-27T20:07:25.380Z,95732.25
2022-08-27T20:12:28.190Z,95732.72
2022-08-27T20:17:30.989Z,95739.53
2022-08-27T20:22:35.261Z,95740.69
2022-08-27T20:27:38.436Z,95742.31
2022-08-27T20:32:41.469Z,95750.97
2022-08-27T20:37:46.200Z,95750.59
2022-08-27T20:42:49.001Z,95761.09
2022-08-27T20:47:53.420Z,95765.13
2022-08-27T20:52:57.439Z,95763.59
2022-08-27T20:58:17.586Z,95776.38
2022-08-27T21:03:20.755Z,95776.97
2022-08-27T21:08:24.916Z,95793.50
2022-08-27T21:13:29.541Z,95787.13
2022-08-27T21:18:32.825Z,95799.19
2022-08-27T21:23:38.828Z,95790.59
2022-08-27T21:28:44.280Z,95790.84
2022-08-27T21:33:47.069Z,95797.19
2022-08-27T21:38:51.322Z,95787.84
2022-08-27T21:43:54.373Z,95801.78
2022-08-27T21:48:58.665Z,95802.22
2022-08-27T21:54:03.316Z,95801.13
2022-08-27T21:59:08.529Z,95800.84
2022-08-27T22:04:11.433Z,95802.56
2022-08-27T22:09:15.680Z,95797.50
2022-08-27T22:14:18.869Z,95792.06
2022-08-27T22:19:22.333Z,95790.75
2022-08-27T22:24:26.497Z,95786.22
2022-08-27T22:29:30.688Z,95786.06
2022-08-27T22:34:33.857Z,95787.44
2022-08-27T22:39:38.075Z,95795.09
2022-08-27T22:44:41.277Z,95797.38
2022-08-27T22:49:45.035Z,95804.22
2022-08-27T22:54:54.830Z,95799.63
2022-08-27T22:59:58.706Z,95798.50
2022-08-27T23:05:05.874Z,95812.38
2022-08-27T23:10:13.129Z,95815.38
2022-08-27T23:15:18.565Z,95817.84
2022-08-27T23:20:22.076Z,95812.63
2022-08-27T23:25:44.374Z,95818.53
2022-08-27T23:30:47.252Z,95822.88
2022-08-27T23:35:51.747Z,95822.66
2022-08-27T23:40:56.243Z,95824.31
2022-08-27T23:45:59.115Z,95815.97
2022-08-27T23:51:02.121Z,95815.53
2022-08-27T23:56:07.097Z,95820.81
